createdAt,value
2022-10-30T00:04:30.060Z,100862.00
2022-10-30T00:14:29.987Z,100856.00
2022-10-30T00:24:30.049Z,100862.00
2022-10-30T00:34:30.013Z,100862.00
2022-10-30T00:44:30.038Z,100863.00
2022-10-30T00:54:30.112Z,100869.00
2022-10-30T01:04:30.459Z,100863.00
2022-10-30T01:14:30.166Z,100858.00
2022-10-30T01:24:30.179Z,100858.00
2022-10-30T01:34:30.236Z,100862.00
2022-10-30T01:44:30.220Z,100858.00
2022-10-30T01:54:30.260Z,100862.00
2022-10-30T02:04:30.271Z,100863.00
2022-10-30T02:14:30.294Z,100860.00
2022-10-30T02:24:30.178Z,100850.00
2022-10-30T02:34:31.092Z,100842.00
2022-10-30T02:44:30.290Z,100850.00
2022-10-30T02:54:30.295Z,100844.00
2022-10-30T03:04:30.422Z,100846.00
2022-10-30T03:14:30.250Z,100846.00
2022-10-30T03:24:30.286Z,100850.00
2022-10-30T03:34:32.152Z,100856.00
2022-10-30T03:44:31.367Z,100858.00
2022-10-30T03:54:31.694Z,100860.00
2022-10-30T04:04:50.910Z,100867.00
2022-10-30T04:14:51.526Z,100877.00
2022-10-30T04:24:51.712Z,100887.00
2022-10-30T04:34:51.555Z,100889.00
2022-10-30T04:44:51.675Z,100889.00
2022-10-30T04:54:51.616Z,100883.00
2022-10-30T05:04:51.489Z,100877.00
2022-10-30T05:14:52.190Z,100873.00
2022-10-30T05:24:51.919Z,100867.00
2022-10-30T05:34:53.327Z,100858.00
2022-10-30T05:45:00.878Z,100850.00
2022-10-30T05:55:10.545Z,100846.00
2022-10-30T06:05:13.984Z,100834.00
2022-10-30T06:15:13.757Z,100842.00
2022-10-30T06:25:15.360Z,100852.00
2022-10-30T06:35:15.245Z,100858.00
2022-10-30T06:45:14.993Z,100860.00
2022-10-30T06:55:22.434Z,100871.00
2022-10-30T07:05:21.803Z,100877.00
2022-10-30T07:15:29.510Z,100881.00
2022-10-30T07:25:31.535Z,100887.00
2022-10-30T07:35:33.533Z,100885.00
2022-10-30T07:45:40.656Z,100881.00
2022-10-30T07:55:54.611Z,100879.00
2022-10-30T08:05:56.653Z,100879.00
2022-10-30T08:15:56.905Z,100885.00
2022-10-30T08:25:57.083Z,100881.00
2022-10-30T08:35:56.965Z,100883.00
2022-10-30T08:45:56.977Z,100877.00
2022-10-30T08:56:01.541Z,100873.00
2022-10-30T09:06:19.500Z,100871.00
2022-10-30T09:16:18.895Z,100863.00
2022-10-30T09:26:21.020Z,100854.00
2022-10-30T09:36:22.287Z,100842.00
2022-10-30T09:46:21.863Z,100832.00
2022-10-30T09:56:21.852Z,100828.00
2022-10-30T10:06:38.978Z,100826.00
2022-10-30T10:16:38.804Z,100826.00
2022-10-30T10:26:38.927Z,100822.00
2022-10-30T10:36:38.889Z,100820.00
2022-10-30T10:39:07.637Z,100817.00
2022-10-30T10:49:07.741Z,100822.00
2022-10-30T10:59:07.645Z,100820.00
2022-10-30T11:09:07.656Z,100820.00
2022-10-30T11:19:07.667Z,100807.00
2022-10-30T11:29:07.715Z,100792.00
2022-10-30T11:39:07.788Z,100786.00
2022-10-30T11:49:07.744Z,100780.00
2022-10-30T11:59:07.745Z,100775.00
2022-10-30T12:09:07.883Z,100773.00
2022-10-30T12:19:07.871Z,100765.00
2022-10-30T12:29:07.841Z,100761.00
2022-10-30T12:39:07.787Z,100763.00
2022-10-30T12:49:07.888Z,100759.00
2022-10-30T12:59:07.832Z,100755.00
2022-10-30T13:09:07.924Z,100747.00
2022-10-30T13:19:07.856Z,100741.00
2022-10-30T13:29:07.875Z,100737.00
2022-10-30T13:39:07.930Z,100728.00
2022-10-30T13:49:07.891Z,100728.00
2022-10-30T13:59:08.063Z,100724.00
2022-10-30T14:09:08.077Z,100726.00
2022-10-30T14:19:07.993Z,100728.00
2022-10-30T14:29:08.073Z,100726.00
2022-10-30T14:39:07.974Z,100722.00
2022-10-30T14:49:08.013Z,100722.00
2022-10-30T14:59:08.015Z,100718.00
2022-10-30T15:09:08.033Z,100718.00
2022-10-30T15:19:08.119Z,100724.00
2022-10-30T15:29:08.168Z,100724.00
2022-10-30T15:39:08.158Z,100731.00
2022-10-30T15:49:08.075Z,100741.00
2022-10-30T15:59:08.089Z,100753.00
2022-10-30T16:09:08.150Z,100767.00
2022-10-30T16:19:08.152Z,100780.00
2022-10-30T16:29:08.235Z,100792.00
2022-10-30T16:39:08.300Z,100811.00
2022-10-30T16:49:08.261Z,100822.00
2022-10-30T16:59:08.221Z,100840.00
2022-10-30T17:09:08.202Z,100860.00
2022-10-30T17:19:08.204Z,100873.00
2022-10-30T17:29:08.311Z,100887.00
2022-10-30T17:39:08.218Z,100905.00
2022-10-30T17:49:08.267Z,100920.00
2022-10-30T17:59:08.224Z,100934.00
2022-10-30T18:09:08.275Z,100942.00
2022-10-30T18:19:08.264Z,100952.00
2022-10-30T18:29:08.300Z,100960.00
2022-10-30T18:39:08.305Z,100967.00
2022-10-30T18:49:08.316Z,100979.00
2022-10-30T18:59:08.327Z,100987.00
2022-10-30T19:09:08.445Z,100993.00
2022-10-30T19:19:11.692Z,100999.00
2022-10-30T19:29:11.390Z,101007.00
2022-10-30T19:39:11.394Z,101014.00
2022-10-30T19:49:11.424Z,101018.00
2022-10-30T19:59:11.466Z,101032.00
2022-10-30T20:09:11.441Z,101040.00
2022-10-30T20:19:11.502Z,101042.00
2022-10-30T20:29:11.488Z,101046.00
2022-10-30T20:39:11.513Z,101058.00
2022-10-30T20:49:17.829Z,101064.00
2022-10-30T20:59:12.512Z,101072.00
2022-10-30T21:09:12.531Z,101086.00
2022-10-30T21:19:12.507Z,101092.00
2022-10-30T21:29:12.641Z,101097.00
2022-10-30T21:39:12.573Z,101103.00
2022-10-30T21:49:12.670Z,101115.00
2022-10-30T21:59:12.577Z,101127.00
2022-10-30T22:09:12.587Z,101133.00
2022-10-30T22:19:12.575Z,101139.00
2022-10-30T22:29:12.621Z,101146.00
2022-10-30T22:39:12.708Z,101150.00
2022-10-30T22:49:12.635Z,101166.00
2022-10-30T22:59:12.747Z,101170.00
2022-10-30T23:09:12.720Z,101170.00
2022-10-30T23:19:12.773Z,101170.00
2022-10-30T23:29:12.711Z,101180.00
2022-10-30T23:39:12.689Z,101182.00
2022-10-30T23:49:12.802Z,101188.00
2022-10-30T23:59:12.752Z,101186.00
